Time;durP1;ratioP1;P1;durP2;ratioP2;P2;SDS_P1;SDS_P2;PMS_P1;PMS_P2;Temp;Humidity;BMP_temperature;BMP_pressure;BME280_temperature;BME280_humidity;BME280_pressure;Samples;Min_cycle;Max_cycle;Signal;HPM_P1;HPM_P2
2022/03/02 00:00:06;;;;;;;30.13;8.75;;;;;;;-0.82;58.70;100814.16;5064651;28;20029;-59
2022/03/02 00:02:31;;;;;;;18.48;7.80;;;;;;;-0.50;58.37;100883.34;5064682;28;20086;-60
2022/03/02 00:04:57;;;;;;;22.48;8.30;;;;;;;-0.44;58.86;100892.09;5064378;28;20261;-59
2022/03/02 00:07:23;;;;;;;35.05;8.75;;;;;;;-0.49;59.02;100888.47;5064098;28;20025;-61
2022/03/02 00:09:48;;;;;;;20.92;8.55;;;;;;;-0.50;59.93;100884.19;5064395;28;20281;-58
2022/03/02 00:12:14;;;;;;;23.08;8.50;;;;;;;-0.54;60.41;100874.72;5064428;28;20033;-59
2022/03/02 00:14:40;;;;;;;19.65;7.78;;;;;;;-0.55;60.02;100884.00;5053433;28;20085;-59
2022/03/02 00:17:05;;;;;;;24.98;7.97;;;;;;;-0.56;59.42;100876.31;5060204;28;20029;-59
2022/03/02 00:19:31;;;;;;;22.02;7.60;;;;;;;-0.57;59.75;100872.91;5064102;28;20253;-60
2022/03/02 00:21:57;;;;;;;29.73;9.00;;;;;;;-0.54;60.86;100873.03;5064181;28;20028;-61
2022/03/02 00:24:22;;;;;;;24.30;7.57;;;;;;;-0.53;60.81;100874.78;5064073;28;20062;-61
2022/03/02 00:26:48;;;;;;;19.75;8.02;;;;;;;-0.53;61.33;100871.34;5064075;28;20089;-60
2022/03/02 00:29:15;;;;;;;20.88;8.48;;;;;;;-0.63;60.00;100851.41;5062801;28;20029;-60
2022/03/02 00:31:41;;;;;;;19.67;7.78;;;;;;;-0.57;60.27;100870.38;5064119;28;20325;-61
2022/03/02 00:34:06;;;;;;;23.40;8.30;;;;;;;-0.58;60.08;100871.16;5064199;28;20111;-61
2022/03/02 00:36:32;;;;;;;19.33;7.40;;;;;;;-0.60;60.84;100864.25;5064023;28;20221;-61
2022/03/02 00:38:58;;;;;;;20.67;7.50;;;;;;;-0.61;61.07;100855.78;5063315;28;20025;-60
2022/03/02 00:41:23;;;;;;;22.95;8.05;;;;;;;-0.62;61.74;100871.81;5062417;28;20035;-60
2022/03/02 00:43:49;;;;;;;20.20;7.53;;;;;;;-0.62;61.06;100863.34;5063596;28;20221;-60
2022/03/02 00:46:16;;;;;;;24.50;7.47;;;;;;;-0.69;60.64;100841.84;5063731;28;20017;-60
2022/03/02 00:48:41;;;;;;;20.70;7.55;;;;;;;-0.68;60.03;100853.75;5063677;28;20112;-60
2022/03/02 00:51:07;;;;;;;23.67;8.25;;;;;;;-0.74;61.93;100848.41;5063365;28;20332;-59
2022/03/02 00:53:34;;;;;;;23.48;8.10;;;;;;;-0.70;61.78;100863.00;5063505;28;20077;-60
2022/03/02 00:55:59;;;;;;;20.65;7.22;;;;;;;-0.72;60.30;100855.28;5063478;28;20028;-59
2022/03/02 00:58:25;;;;;;;21.80;7.85;;;;;;;-0.76;61.26;100860.19;5063531;28;20036;-59
2022/03/02 01:00:51;;;;;;;24.48;8.65;;;;;;;-0.79;59.91;100860.91;5063341;28;20115;-59
2022/03/02 01:03:16;;;;;;;26.30;7.97;;;;;;;-0.79;61.11;100849.88;5062058;28;20032;-59
2022/03/02 01:05:42;;;;;;;23.48;8.40;;;;;;;-0.82;60.90;100848.06;5063345;28;20048;-60
2022/03/02 01:08:08;;;;;;;26.40;7.75;;;;;;;-0.81;60.33;100848.94;5062644;28;20036;-61
2022/03/02 01:10:34;;;;;;;16.58;7.63;;;;;;;-0.80;60.45;100846.44;5063282;28;20047;-61
2022/03/02 01:12:59;;;;;;;20.55;8.52;;;;;;;-0.85;61.35;100837.78;5063213;28;20352;-61
2022/03/02 01:15:25;;;;;;;23.98;8.27;;;;;;;-0.83;61.56;100832.75;5063134;28;20210;-61
2022/03/02 01:17:51;;;;;;;19.58;7.78;;;;;;;-0.83;61.94;100838.69;5063077;28;20028;-60
2022/03/02 01:20:16;;;;;;;23.77;7.22;;;;;;;-0.83;61.87;100835.28;5063025;28;20024;-60
2022/03/02 01:22:42;;;;;;;19.60;7.68;;;;;;;-0.84;60.55;100833.53;5063015;28;20032;-60
2022/03/02 01:25:09;;;;;;;16.33;8.02;;;;;;;-0.87;60.60;100845.34;5062934;28;20048;-60
2022/03/02 01:27:36;;;;;;;19.63;7.40;;;;;;;-0.90;61.86;100826.53;5061690;28;20245;-60
2022/03/02 01:30:04;;;;;;;20.27;7.43;;;;;;;-1.28;61.64;100768.13;5062987;28;20024;-60
2022/03/02 01:32:30;;;;;;;23.85;9.20;;;;;;;-0.95;62.52;100828.00;5062750;28;20084;-60
2022/03/02 01:34:56;;;;;;;24.80;8.45;;;;;;;-0.93;61.32;100818.75;5062785;28;20097;-61
2022/03/02 01:37:21;;;;;;;17.98;8.02;;;;;;;-0.94;61.98;100830.63;5062716;28;20016;-59
2022/03/02 01:39:48;;;;;;;19.27;7.97;;;;;;;-0.90;63.03;100824.88;5062620;28;20213;-60
2022/03/02 01:42:14;;;;;;;20.45;8.32;;;;;;;-0.91;61.77;100819.72;5062387;28;20025;-60
2022/03/02 01:44:40;;;;;;;21.02;8.18;;;;;;;-0.94;62.31;100834.81;5062807;28;20059;-59
2022/03/02 01:47:07;;;;;;;21.45;8.13;;;;;;;-0.92;62.49;100823.91;5062864;28;20054;-59
2022/03/02 01:49:34;;;;;;;24.80;8.07;;;;;;;-0.99;63.08;100804.13;5062559;28;20025;-62
2022/03/02 01:52:00;;;;;;;19.17;7.03;;;;;;;-0.99;62.67;100815.97;5062514;28;20258;-61
2022/03/02 01:54:26;;;;;;;27.42;8.75;;;;;;;-0.97;62.71;100817.78;5061200;28;20079;-61
2022/03/02 01:56:52;;;;;;;23.73;7.40;;;;;;;-1.00;61.92;100810.00;5062276;28;20062;-60
2022/03/02 01:59:18;;;;;;;24.67;7.82;;;;;;;-1.00;61.73;100810.00;5062506;28;20365;-60
2022/03/02 02:01:43;;;;;;;24.85;8.45;;;;;;;-0.96;63.53;100808.47;5061244;28;20021;-60
2022/03/02 02:04:10;;;;;;;24.60;7.72;;;;;;;-1.01;62.74;100802.31;5062578;28;20066;-60
2022/03/02 02:06:37;;;;;;;20.25;8.07;;;;;;;-1.03;63.38;100804.78;5061188;28;20060;-59
2022/03/02 02:09:06;;;;;;;17.25;7.57;;;;;;;-1.06;61.34;100824.97;5060782;28;20266;-60
2022/03/02 02:11:33;;;;;;;18.17;7.57;;;;;;;-1.08;62.97;100803.72;5062804;28;20206;-59
2022/03/02 02:13:59;;;;;;;20.60;8.15;;;;;;;-1.11;62.62;100790.84;5061384;28;20064;-61
2022/03/02 02:16:25;;;;;;;19.48;7.47;;;;;;;-1.17;61.88;100786.38;5062514;28;20088;-61
2022/03/02 02:18:54;;;;;;;26.42;8.13;;;;;;;-1.18;62.57;100786.31;5062120;28;20028;-60
2022/03/02 02:21:21;;;;;;;19.90;7.90;;;;;;;-1.22;62.80;100785.31;5062501;28;20040;-61
2022/03/02 02:23:46;;;;;;;22.33;8.32;;;;;;;-1.19;63.42;100784.59;5061177;28;20028;-60
2022/03/02 02:26:12;;;;;;;16.27;7.80;;;;;;;-1.20;63.24;100778.63;5062130;28;20021;-61
2022/03/02 02:28:38;;;;;;;19.73;7.65;;;;;;;-1.27;63.03;100777.50;5062349;28;20039;-61
2022/03/02 02:31:04;;;;;;;25.08;7.72;;;;;;;-1.25;63.13;100765.72;5061804;28;20027;-61
2022/03/02 02:33:30;;;;;;;22.30;8.00;;;;;;;-1.26;63.60;100756.34;5062181;28;20075;-60
2022/03/02 02:35:56;;;;;;;21.63;7.35;;;;;;;-1.25;62.10;100765.72;5061076;28;20041;-60
2022/03/02 02:38:22;;;;;;;18.23;7.57;;;;;;;-1.29;63.23;100765.53;5062435;28;20037;-60
2022/03/02 02:40:52;;;;;;;19.98;7.82;;;;;;;-1.27;64.37;100776.63;5062166;28;20025;-60
2022/03/02 02:43:22;;;;;;;20.10;8.75;;;;;;;-1.39;64.12;100749.00;5062113;28;20048;-61
2022/03/02 02:45:47;;;;;;;25.10;8.82;;;;;;;-1.32;63.90;100767.94;5062072;28;20049;-61
2022/03/02 02:48:13;;;;;;;25.27;8.55;;;;;;;-1.33;62.88;100769.59;5062019;28;20036;-61
2022/03/02 02:50:39;;;;;;;17.85;7.22;;;;;;;-1.29;63.32;100765.53;5060677;28;20037;-60
2022/03/02 02:53:08;;;;;;;16.30;6.78;;;;;;;-1.75;62.82;100693.25;5063457;28;20041;-61
2022/03/02 02:55:34;;;;;;;20.30;8.57;;;;;;;-1.30;64.06;100762.09;5076703;28;20318;-61
2022/03/02 02:58:01;;;;;;;22.05;8.25;;;;;;;-1.70;64.65;100688.34;5065662;28;20025;-60
2022/03/02 03:00:29;;;;;;;19.67;7.72;;;;;;;-1.68;64.46;100687.63;5064555;28;20304;-61
2022/03/02 03:02:56;;;;;;;16.65;8.43;;;;;;;-1.38;63.81;100750.75;5065697;28;20040;-61
2022/03/02 03:05:25;;;;;;;20.83;8.13;;;;;;;-1.38;63.83;100738.06;5065639;28;20392;-61
2022/03/02 03:07:51;;;;;;;22.33;8.68;;;;;;;-1.33;63.05;100749.25;5064375;28;20290;-61
2022/03/02 03:10:18;;;;;;;19.23;7.97;;;;;;;-1.33;63.19;100746.72;5065422;28;20214;-60
2022/03/02 03:12:46;;;;;;;22.75;8.23;;;;;;;-1.42;64.24;100738.72;5065322;28;20021;-60
2022/03/02 03:15:13;;;;;;;18.88;8.65;;;;;;;-1.36;64.91;100746.59;5064264;28;20033;-60
2022/03/02 03:17:39;;;;;;;25.38;8.50;;;;;;;-1.37;63.58;100742.31;5065215;28;20187;-59
2022/03/02 03:20:08;;;;;;;19.63;8.25;;;;;;;-1.98;64.97;100670.22;5063731;28;20067;-59
2022/03/02 03:22:34;;;;;;;27.38;8.57;;;;;;;-1.45;64.58;100733.50;5065279;28;20089;-58
2022/03/02 03:25:00;;;;;;;21.60;8.35;;;;;;;-1.45;63.72;100746.22;5065113;28;20052;-59
2022/03/02 03:27:26;;;;;;;20.92;7.55;;;;;;;-1.42;64.29;100738.72;5065281;28;20025;-60
2022/03/02 03:29:52;;;;;;;23.67;8.85;;;;;;;-1.43;63.91;100737.81;5065316;28;20036;-60
2022/03/02 03:32:18;;;;;;;24.98;8.68;;;;;;;-1.53;63.95;100719.59;5064171;28;20088;-60
2022/03/02 03:34:43;;;;;;;24.90;8.88;;;;;;;-1.46;64.98;100732.59;5065316;28;20033;-60
2022/03/02 03:37:09;;;;;;;23.83;8.98;;;;;;;-1.47;65.24;100730.00;5065132;28;20261;-60
2022/03/02 03:39:35;;;;;;;24.67;8.68;;;;;;;-1.49;65.61;100732.47;5064670;28;20103;-60
2022/03/02 03:42:01;;;;;;;24.33;8.43;;;;;;;-1.47;65.00;100730.91;5064640;28;20025;-60
2022/03/02 03:44:26;;;;;;;22.05;8.45;;;;;;;-1.48;65.39;100729.16;5064690;28;20025;-60
2022/03/02 03:46:52;;;;;;;21.08;8.05;;;;;;;-1.51;64.89;100715.44;5064625;28;20210;-60
2022/03/02 03:49:18;;;;;;;24.85;9.15;;;;;;;-1.53;64.35;100717.03;5064546;28;20025;-60
2022/03/02 03:51:43;;;;;;;27.02;8.70;;;;;;;-1.52;64.79;100724.72;5064599;28;20080;-60
2022/03/02 03:54:10;;;;;;;19.92;8.85;;;;;;;-1.48;65.93;100721.53;5064616;28;20104;-60
2022/03/02 03:56:36;;;;;;;21.10;8.27;;;;;;;-1.52;65.50;100719.66;5063470;28;20035;-60
2022/03/02 03:59:02;;;;;;;23.55;8.98;;;;;;;-1.57;64.11;100714.38;5063308;28;20036;-59
2022/03/02 04:01:28;;;;;;;29.63;9.00;;;;;;;-1.61;65.54;100717.56;5064402;28;20024;-59
2022/03/02 04:03:54;;;;;;;23.17;8.63;;;;;;;-1.60;65.85;100732.00;5064316;28;20036;-60
2022/03/02 04:06:20;;;;;;;24.75;9.00;;;;;;;-1.60;65.97;100720.97;5062948;28;20041;-60
2022/03/02 04:08:46;;;;;;;26.33;9.13;;;;;;;-1.64;65.27;100706.41;5063380;28;20025;-60
2022/03/02 04:11:11;;;;;;;23.40;8.55;;;;;;;-1.61;65.04;100716.69;5064328;28;20074;-60
2022/03/02 04:13:37;;;;;;;25.00;9.25;;;;;;;-1.66;65.21;100713.94;5064192;28;20029;-61
2022/03/02 04:16:04;;;;;;;23.38;8.40;;;;;;;-1.96;64.71;100663.53;5064017;28;20110;-61
2022/03/02 04:18:31;;;;;;;24.42;8.82;;;;;;;-1.67;64.70;100707.13;5062543;28;20032;-61
2022/03/02 04:21:00;;;;;;;29.50;9.15;;;;;;;-1.60;65.62;100713.34;5064271;28;20048;-60
2022/03/02 04:23:26;;;;;;;30.85;9.63;;;;;;;-1.66;65.50;100701.25;5064019;28;20036;-61
2022/03/02 04:25:53;;;;;;;31.90;9.35;;;;;;;-1.63;66.40;100705.59;5062575;28;20050;-61
2022/03/02 04:28:19;;;;;;;27.90;10.13;;;;;;;-1.65;65.80;100692.84;5063885;28;20044;-60
2022/03/02 04:30:45;;;;;;;23.50;10.02;;;;;;;-1.87;64.83;100657.16;5063408;28;20110;-61
2022/03/02 04:33:12;;;;;;;49.70;11.55;;;;;;;-1.69;65.36;100685.88;5063553;28;20187;-61
2022/03/02 04:35:38;;;;;;;43.20;11.18;;;;;;;-1.72;64.71;100688.28;5063258;28;20084;-61
2022/03/02 04:38:04;;;;;;;35.80;10.50;;;;;;;-1.68;64.51;100700.34;5062180;28;20332;-61
2022/03/02 04:40:30;;;;;;;24.10;10.50;;;;;;;-1.61;65.55;100707.41;5063617;28;20025;-61
2022/03/02 04:42:56;;;;;;;28.88;9.70;;;;;;;-1.61;65.07;100701.44;5063187;28;20033;-61
2022/03/02 04:45:27;;;;;;;26.10;9.32;;;;;;;-1.67;65.72;100688.50;5063025;28;20371;-60
2022/03/02 04:47:54;;;;;;;24.00;8.80;;;;;;;-1.62;65.42;100699.72;5063230;28;20337;-61
2022/03/02 04:50:21;;;;;;;27.05;11.18;;;;;;;-1.55;66.25;100699.19;5062180;28;20032;-62
2022/03/02 04:52:48;;;;;;;26.83;9.32;;;;;;;-1.58;65.11;100701.63;5063489;28;20021;-61
2022/03/02 04:55:14;;;;;;;31.10;9.85;;;;;;;-1.57;65.79;100693.16;5062415;28;20029;-60
2022/03/02 04:57:49;;;;;;;23.58;9.77;;;;;;;-1.94;65.78;100634.03;5063179;28;20032;-56
2022/03/02 05:00:25;;;;;;;22.65;9.88;;;;;;;-1.94;66.07;100633.16;5062904;28;20214;-59
2022/03/02 05:02:52;;;;;;;26.83;10.73;;;;;;;-1.47;66.28;100702.06;5063287;28;20029;-61
2022/03/02 05:05:21;;;;;;;22.85;10.25;;;;;;;-1.78;65.53;100627.06;5062954;28;20054;-61
2022/03/02 05:07:47;;;;;;;24.83;10.13;;;;;;;-1.40;64.01;100683.75;5062741;28;20025;-62
2022/03/02 05:10:14;;;;;;;29.52;10.63;;;;;;;-1.46;65.34;100680.94;5061990;28;20320;-62
2022/03/02 05:12:40;;;;;;;37.90;11.43;;;;;;;-1.36;64.75;100693.25;5063027;28;20033;-61
2022/03/02 05:15:09;;;;;;;32.65;9.93;;;;;;;-1.72;64.12;100619.75;5062548;28;20033;-61
2022/03/02 05:17:35;;;;;;;34.47;11.15;;;;;;;-1.29;65.72;100684.22;5063010;28;20056;-62
2022/03/02 05:20:01;;;;;;;35.13;11.05;;;;;;;-1.25;65.71;100684.41;5062756;28;20120;-61
2022/03/02 05:22:26;;;;;;;32.83;10.75;;;;;;;-1.28;65.52;100689.38;5061280;28;20310;-61
2022/03/02 05:24:52;;;;;;;30.85;10.43;;;;;;;-1.15;65.32;100687.34;5061356;28;20040;-61
2022/03/02 05:27:17;;;;;;;33.60;9.90;;;;;;;-1.49;65.32;100640.19;5062766;28;20087;-62
2022/03/02 05:29:43;;;;;;;41.30;11.48;;;;;;;-1.10;65.71;100689.28;5062811;28;20029;-65
2022/03/02 05:32:09;;;;;;;40.13;10.20;;;;;;;-1.05;65.23;100677.63;5062685;28;20044;-62
2022/03/02 05:34:35;;;;;;;39.28;11.25;;;;;;;-1.05;65.77;100667.44;5062977;28;20020;-61
2022/03/02 05:37:00;;;;;;;32.17;11.02;;;;;;;-0.95;65.29;100671.25;5062868;28;20027;-62
2022/03/02 05:39:26;;;;;;;27.20;9.82;;;;;;;-0.89;65.63;100676.56;5063014;28;20059;-61
2022/03/02 05:41:52;;;;;;;29.73;10.48;;;;;;;-0.82;65.50;100672.63;5062865;28;20021;-62
2022/03/02 05:44:18;;;;;;;27.52;9.93;;;;;;;-0.80;64.32;100671.00;5061033;28;20082;-63
2022/03/02 05:46:44;;;;;;;31.50;11.02;;;;;;;-0.73;64.82;100672.13;5062698;28;20041;-62
2022/03/02 05:49:10;;;;;;;40.78;12.13;;;;;;;-0.66;65.62;100675.78;5061507;28;20033;-61
2022/03/02 05:51:37;;;;;;;43.72;12.30;;;;;;;-0.60;63.79;100676.00;5062294;28;20029;-62
2022/03/02 05:54:04;;;;;;;33.60;10.48;;;;;;;-0.52;64.07;100679.75;5060572;28;20247;-63
2022/03/02 05:56:31;;;;;;;34.05;10.45;;;;;;;-0.47;63.46;100663.00;5061847;28;20036;-63
2022/03/02 05:58:57;;;;;;;25.60;10.00;;;;;;;-0.34;64.73;100661.78;5062008;28;20092;-61
2022/03/02 06:01:23;;;;;;;41.55;12.82;;;;;;;-0.26;63.88;100664.63;5062221;28;20040;-62
2022/03/02 06:03:49;;;;;;;45.13;12.80;;;;;;;-0.19;63.96;100656.41;5062376;28;20096;-62
2022/03/02 06:06:15;;;;;;;45.75;13.48;;;;;;;-0.11;63.93;100657.56;5062002;28;20102;-62
2022/03/02 06:08:41;;;;;;;41.97;11.43;;;;;;;-0.04;64.91;100659.53;5059006;28;20399;-61
2022/03/02 06:11:07;;;;;;;47.45;13.02;;;;;;;0.05;63.53;100648.81;5061265;28;20068;-62
2022/03/02 06:13:34;;;;;;;57.53;13.55;;;;;;;0.16;64.35;100654.31;5060347;28;20037;-63
2022/03/02 06:16:01;;;;;;;36.40;12.15;;;;;;;0.23;62.07;100645.19;5056529;28;20028;-63
2022/03/02 06:18:26;;;;;;;34.10;11.02;;;;;;;0.30;62.42;100637.84;5062354;28;20056;-62
2022/03/02 06:20:53;;;;;;;41.53;11.57;;;;;;;0.42;61.65;100644.19;5062555;28;20317;-63
2022/03/02 06:23:22;;;;;;;39.20;10.98;;;;;;;0.60;60.55;100643.94;5062535;28;20380;-62
2022/03/02 06:25:48;;;;;;;30.63;9.00;;;;;;;0.75;57.51;100638.53;5061923;28;20028;-62
2022/03/02 06:28:14;;;;;;;40.00;11.15;;;;;;;0.82;59.35;100635.38;5064306;28;20024;-61
2022/03/02 06:30:40;;;;;;;35.78;10.02;;;;;;;0.93;58.34;100634.03;5065939;28;20032;-61
2022/03/02 06:33:06;;;;;;;27.63;9.23;;;;;;;1.05;56.23;100630.16;5065246;28;20052;-62
2022/03/02 06:35:32;;;;;;;42.63;10.50;;;;;;;1.14;57.42;100631.31;5063272;28;20017;-61
2022/03/02 06:37:58;;;;;;;23.15;8.90;;;;;;;1.27;55.49;100626.59;5065899;28;20047;-60
2022/03/02 06:40:23;;;;;;;23.52;7.57;;;;;;;1.35;55.24;100626.03;5070322;28;20021;-61
2022/03/02 06:43:06;;;;;;;20.33;8.07;;;;;;;1.04;55.39;100557.84;5064482;28;20369;-61
2022/03/02 06:45:40;;;;;;;20.25;8.13;;;;;;;1.57;54.59;100621.59;5065914;28;20029;-61
2022/03/02 06:48:12;;;;;;;33.40;8.70;;;;;;;1.71;54.21;100632.19;5065888;28;20021;-61
2022/03/02 06:50:43;;;;;;;23.55;8.52;;;;;;;2.42;52.41;100608.66;5065564;28;20032;-60
2022/03/02 06:53:12;;;;;;;30.90;8.82;;;;;;;2.83;50.23;100551.72;5065731;28;20060;-61
2022/03/02 06:55:41;;;;;;;36.25;13.48;;;;;;;4.07;49.11;100619.31;5065705;28;20044;-61
2022/03/02 06:58:10;;;;;;;25.48;8.48;;;;;;;4.88;46.31;100571.19;5065727;28;20052;-61
2022/03/02 07:00:36;;;;;;;24.80;8.13;;;;;;;5.59;44.24;100602.22;5065721;28;20362;-61
2022/03/02 07:03:04;;;;;;;21.67;8.95;;;;;;;5.87;43.47;100585.44;5064813;28;20093;-61
2022/03/02 07:05:31;;;;;;;23.90;9.65;;;;;;;6.84;41.42;100595.91;5064461;28;20045;-61
2022/03/02 07:07:59;;;;;;;26.45;8.55;;;;;;;7.81;40.87;100595.69;5060996;28;20025;-62
2022/03/02 07:10:24;;;;;;;35.75;8.85;;;;;;;8.48;39.59;100586.50;5065567;28;20096;-62
2022/03/02 07:12:50;;;;;;;30.05;10.02;;;;;;;8.79;39.27;100580.50;5065625;28;20344;-62
2022/03/02 07:15:16;;;;;;;33.92;10.18;;;;;;;8.85;37.80;100579.66;5065132;28;20075;-62
2022/03/02 07:17:41;;;;;;;31.67;9.68;;;;;;;8.79;36.80;100580.50;5064988;28;20056;-62
2022/03/02 07:20:09;;;;;;;23.50;9.43;;;;;;;8.37;36.15;100530.53;5064701;28;20245;-62
2022/03/02 07:22:50;;;;;;;22.77;9.00;;;;;;;8.87;36.55;100551.25;5064865;28;20021;-61
2022/03/02 07:25:20;;;;;;;27.63;9.45;;;;;;;8.86;35.51;100583.09;5065566;28;20033;-62
2022/03/02 07:27:45;;;;;;;31.83;10.23;;;;;;;9.20;37.63;100578.75;5065447;28;20025;-61
2022/03/02 07:30:12;;;;;;;31.15;9.25;;;;;;;9.17;35.77;100570.16;5065032;28;20331;-61
2022/03/02 07:32:41;;;;;;;33.88;10.38;;;;;;;9.42;35.54;100532.19;5065326;28;20024;-61
2022/03/02 07:35:07;;;;;;;23.02;8.93;;;;;;;9.86;35.57;100562.19;5073231;28;20016;-62
2022/03/02 07:37:33;;;;;;;32.00;10.50;;;;;;;10.03;34.89;100569.88;5066111;28;20252;-62
2022/03/02 07:40:00;;;;;;;25.58;9.02;;;;;;;10.04;35.07;100573.34;5064497;28;20360;-61
2022/03/02 07:42:26;;;;;;;29.90;9.80;;;;;;;10.20;34.39;100564.63;5064425;28;20419;-61
2022/03/02 07:44:54;;;;;;;25.35;9.02;;;;;;;10.56;33.07;100567.91;5064163;28;20032;-61
2022/03/02 07:47:20;;;;;;;30.85;9.85;;;;;;;10.65;35.47;100564.38;5064127;28;20049;-62
2022/03/02 07:49:46;;;;;;;28.33;10.45;;;;;;;10.74;33.81;100556.50;5063674;28;20059;-62
2022/03/02 07:52:14;;;;;;;31.20;8.85;;;;;;;10.96;32.82;100556.31;5064697;28;20028;-60
2022/03/02 07:54:41;;;;;;;21.17;9.02;;;;;;;10.91;33.71;100553.78;5063439;28;20025;-61
2022/03/02 07:57:10;;;;;;;23.52;9.10;;;;;;;10.39;33.22;100511.03;5064100;28;20395;-62
2022/03/02 07:59:39;;;;;;;25.50;8.75;;;;;;;10.59;33.80;100556.63;5064186;28;20025;-62
2022/03/02 08:02:08;;;;;;;35.22;9.40;;;;;;;10.61;34.74;100558.34;5064312;28;20091;-62
2022/03/02 08:04:35;;;;;;;26.63;8.63;;;;;;;10.74;33.02;100558.25;5064238;28;20217;-62
2022/03/02 08:07:01;;;;;;;23.20;9.43;;;;;;;10.81;32.89;100545.22;5062786;28;20082;-62
2022/03/02 08:09:27;;;;;;;25.73;9.65;;;;;;;10.56;33.38;100551.47;5060676;28;20024;-61
2022/03/02 08:11:52;;;;;;;29.10;10.07;;;;;;;10.18;33.09;100528.38;5063874;28;20328;-61
2022/03/02 08:14:18;;;;;;;29.65;9.48;;;;;;;10.16;34.38;100540.50;5064005;28;20035;-62
2022/03/02 08:16:47;;;;;;;28.40;9.10;;;;;;;9.82;33.15;100530.31;5063580;28;20013;-61
2022/03/02 08:19:13;;;;;;;23.70;9.02;;;;;;;10.33;33.88;100529.16;5063547;28;20021;-63
2022/03/02 08:21:43;;;;;;;35.03;10.90;;;;;;;10.13;33.21;100473.22;5063804;28;20092;-61
2022/03/02 08:24:12;;;;;;;27.25;9.90;;;;;;;10.64;34.96;100521.19;5063827;28;20025;-61
2022/03/02 08:26:39;;;;;;;29.30;10.15;;;;;;;10.27;34.71;100460.16;5061153;28;20017;-61
2022/03/02 08:29:10;;;;;;;30.05;8.07;;;;;;;10.60;33.98;100458.19;5063612;28;20028;-62
2022/03/02 08:31:39;;;;;;;23.13;8.43;;;;;;;10.70;32.96;100448.59;5063432;28;20314;-62
2022/03/02 08:34:09;;;;;;;28.08;8.98;;;;;;;11.48;33.20;100495.31;5063373;28;20048;-63
2022/03/02 08:36:36;;;;;;;30.58;9.30;;;;;;;11.74;31.92;100498.44;5061995;28;20191;-61
2022/03/02 08:39:07;;;;;;;25.75;8.65;;;;;;;11.70;31.01;100485.50;5062788;28;20024;-61
2022/03/02 08:41:34;;;;;;;26.60;9.15;;;;;;;11.45;30.50;100488.41;5063153;28;20112;-61
2022/03/02 08:43:59;;;;;;;30.73;8.70;;;;;;;11.62;31.47;100487.34;5063085;28;20029;-61
2022/03/02 08:46:27;;;;;;;28.23;9.38;;;;;;;11.73;31.33;100483.75;5063208;28;20367;-61
2022/03/02 08:48:53;;;;;;;33.83;9.10;;;;;;;11.98;31.86;100480.81;5062954;28;20040;-61
2022/03/02 08:51:24;;;;;;;23.20;8.95;;;;;;;12.40;31.25;100475.03;5060683;28;20424;-62
2022/03/02 08:53:52;;;;;;;28.30;9.45;;;;;;;12.70;30.75;100465.84;5062909;28;20045;-61
2022/03/02 08:56:20;;;;;;;35.72;9.23;;;;;;;12.69;29.46;100439.88;5060427;28;20326;-62
2022/03/02 08:58:46;;;;;;;30.58;9.20;;;;;;;13.03;30.16;100458.31;5062261;28;20087;-61
2022/03/02 09:01:14;;;;;;;25.52;8.48;;;;;;;13.25;29.64;100442.28;5063256;28;20036;-61
2022/03/02 09:03:46;;;;;;;30.55;9.35;;;;;;;13.83;28.82;100444.56;5062646;28;20017;-61
2022/03/02 09:06:12;;;;;;;33.47;9.35;;;;;;;14.22;29.39;100447.97;5063068;28;20164;-61
2022/03/02 09:08:39;;;;;;;27.13;8.68;;;;;;;14.24;29.29;100448.81;5059912;28;20025;-61
2022/03/02 09:11:05;;;;;;;20.52;7.38;;;;;;;14.52;28.77;100442.88;5062841;28;20028;-62
2022/03/02 09:13:31;;;;;;;18.55;6.63;;;;;;;14.74;28.27;100445.00;5062871;28;20035;-62
2022/03/02 09:15:57;;;;;;;22.75;6.78;;;;;;;14.17;26.73;100436.81;5062696;28;20307;-62
2022/03/02 09:18:22;;;;;;;16.33;6.78;;;;;;;14.05;27.11;100435.38;5062256;28;20044;-63
2022/03/02 09:20:59;;;;;;;16.77;6.35;;;;;;;14.24;27.58;100433.16;5062566;28;20024;-62
2022/03/02 09:23:29;;;;;;;46.97;7.28;;;;;;;14.35;26.52;100429.44;5062627;28;20032;-61
2022/03/02 09:25:58;;;;;;;19.98;6.55;;;;;;;14.45;27.26;100384.88;5061542;28;20027;-62
2022/03/02 09:28:28;;;;;;;12.23;4.72;;;;;;;13.46;27.61;100388.97;5062523;28;20029;-62
2022/03/02 09:30:54;;;;;;;11.85;5.05;;;;;;;12.93;27.60;100421.22;5061689;28;20282;-61
2022/03/02 09:33:23;;;;;;;14.57;5.32;;;;;;;13.06;27.79;100434.84;5061881;28;20025;-62
2022/03/02 09:35:51;;;;;;;15.05;5.95;;;;;;;12.40;27.86;100368.53;5062316;28;20233;-61
2022/03/02 09:38:20;;;;;;;20.10;6.22;;;;;;;12.51;29.62;100368.31;5060600;28;20048;-62
2022/03/02 09:40:50;;;;;;;15.48;5.28;;;;;;;12.04;29.14;100418.44;5044166;28;20021;-62
2022/03/02 09:43:21;;;;;;;16.23;5.90;;;;;;;11.35;29.29;100360.59;5062120;28;20033;-61
2022/03/02 09:45:52;;;;;;;12.82;5.45;;;;;;;10.36;30.42;100436.81;5062338;28;20032;-63
2022/03/02 09:48:50;;;;;;;13.73;5.80;;;;;;;10.57;30.91;100423.69;5062117;28;20044;-61
2022/03/02 09:51:28;;;;;;;9.32;5.03;;;;;;;10.48;30.86;100386.66;5061461;28;20036;-62
2022/03/02 09:53:54;;;;;;;12.23;5.90;;;;;;;10.74;31.74;100408.84;5061877;28;20056;-62
2022/03/02 09:56:22;;;;;;;15.70;5.68;;;;;;;9.97;31.73;100399.97;5061912;28;20021;-60
2022/03/02 09:58:51;;;;;;;19.40;5.90;;;;;;;9.58;31.82;100401.97;5061420;28;20071;-62
2022/03/02 10:01:24;;;;;;;17.58;5.93;;;;;;;9.74;32.98;100402.75;5061590;28;20074;-61
2022/03/02 10:03:51;;;;;;;20.48;6.18;;;;;;;9.73;34.37;100406.19;5061969;28;20024;-61
2022/03/02 10:06:20;;;;;;;21.92;6.95;;;;;;;9.44;34.62;100360.69;5061871;28;20379;-61
2022/03/02 10:08:51;;;;;;;18.98;6.72;;;;;;;9.38;34.22;100346.91;5059417;28;20029;-61
2022/03/02 10:11:23;;;;;;;19.50;6.90;;;;;;;9.22;34.34;100334.09;5061170;28;20251;-61
2022/03/02 10:13:50;;;;;;;16.95;6.53;;;;;;;9.65;34.05;100395.91;5060564;28;20028;-62
2022/03/02 10:16:27;;;;;;;17.52;6.85;;;;;;;9.17;33.24;100330.69;5059285;28;20020;-61
2022/03/02 10:19:03;;;;;;;17.52;6.10;;;;;;;9.33;34.35;100385.72;5061918;28;20036;-62
2022/03/02 10:21:31;;;;;;;19.13;6.95;;;;;;;8.97;35.32;100320.44;5062300;28;20318;-62
2022/03/02 10:24:00;;;;;;;18.75;6.57;;;;;;;9.02;35.47;100323.88;5060637;28;20214;-62
2022/03/02 10:26:31;;;;;;;28.83;13.95;;;;;;;8.98;34.00;100315.25;5061549;28;20035;-61
2022/03/02 10:28:59;;;;;;;;;;;;;;;9.19;34.92;100366.84;5062341;28;20040;-61
2022/03/02 10:31:36;;;;;;;11.70;5.60;;;;;;;9.19;34.91;100364.25;5061736;28;19908;-62
2022/03/02 10:34:13;;;;;;;12.77;6.22;;;;;;;8.98;34.37;100348.00;5061533;28;20025;-62
2022/03/02 10:36:42;;;;;;;15.90;6.20;;;;;;;8.94;34.45;100349.72;5059125;28;20065;-61
2022/03/02 10:39:09;;;;;;;17.42;6.63;;;;;;;8.68;34.89;100355.00;5062012;28;20100;-61
2022/03/02 10:41:39;;;;;;;14.85;6.05;;;;;;;8.75;34.53;100330.88;5061125;28;20094;-61
2022/03/02 10:44:42;;;;;;;18.20;6.30;;;;;;;8.89;36.44;100337.69;5075228;28;20117;-61
2022/03/02 10:47:10;;;;;;;17.40;5.90;;;;;;;8.44;34.74;100275.88;5060192;28;20144;-62
2022/03/02 10:49:37;;;;;;;16.27;6.20;;;;;;;8.67;35.58;100322.28;5059747;28;20100;-61
2022/03/02 10:52:05;;;;;;;14.77;6.28;;;;;;;8.88;35.54;100328.22;5061048;28;20079;-62
2022/03/02 10:54:31;;;;;;;13.43;5.78;;;;;;;8.19;34.89;100329.25;5061401;28;20265;-60
2022/03/02 10:57:02;;;;;;;15.20;5.60;;;;;;;8.36;34.60;100311.16;5061704;28;20127;-62
2022/03/02 10:59:31;;;;;;;18.90;6.60;;;;;;;8.33;35.81;100283.63;5058718;28;20028;-61
2022/03/02 11:01:58;;;;;;;16.98;6.15;;;;;;;8.54;34.66;100318.88;5061555;28;20028;-62
2022/03/02 11:04:23;;;;;;;27.83;11.77;;;;;;;8.66;35.22;100320.56;5061505;28;20021;-61
2022/03/02 11:06:49;;;;;;;17.45;6.38;;;;;;;8.71;35.10;100310.22;5061449;28;20036;-61
2022/03/02 11:09:20;;;;;;;15.32;6.28;;;;;;;8.27;35.03;100255.25;5059742;28;20352;-61
2022/03/02 11:11:47;;;;;;;16.02;6.75;;;;;;;8.68;34.73;100312.81;5061401;28;20025;-61
2022/03/02 11:14:13;;;;;;;15.30;5.95;;;;;;;8.75;34.20;100312.78;5062389;28;20045;-60
2022/03/02 11:16:39;;;;;;;14.57;6.20;;;;;;;8.72;35.86;100315.38;5065113;28;20029;-61